createdAt,value
2023-02-17T00:01:25.513Z,3.38
2023-02-17T00:03:53.838Z,3.34
2023-02-17T00:06:24.408Z,3.24
2023-02-17T00:08:52.779Z,3.26
2023-02-17T00:11:20.778Z,3.28
2023-02-17T00:13:48.645Z,3.28
2023-02-17T00:16:21.489Z,3.30
2023-02-17T00:19:00.765Z,3.37
2023-02-17T00:21:32.318Z,3.44
2023-02-17T00:24:00.529Z,3.49
2023-02-17T00:26:28.372Z,3.48
2023-02-17T00:28:57.930Z,3.62
2023-02-17T00:31:25.655Z,3.62
2023-02-17T00:33:56.041Z,3.71
2023-02-17T00:36:24.244Z,3.61
2023-02-17T00:38:53.909Z,3.68
2023-02-17T00:41:23.224Z,3.73
2023-02-17T00:43:51.074Z,3.78
2023-02-17T00:46:19.245Z,3.82
2023-02-17T00:48:48.202Z,3.81
2023-02-17T00:51:17.374Z,3.76
2023-02-17T00:53:45.896Z,3.82
2023-02-17T00:56:14.283Z,3.89
2023-02-17T00:58:42.514Z,3.99
2023-02-17T01:01:11.372Z,3.99
2023-02-17T01:03:42.328Z,4.08
2023-02-17T01:06:18.564Z,4.07
2023-02-17T01:08:46.450Z,4.04
2023-02-17T01:11:19.356Z,4.21
2023-02-17T01:13:47.350Z,4.21
2023-02-17T01:16:42.059Z,4.33
2023-02-17T01:19:14.198Z,4.29
2023-02-17T01:21:42.282Z,4.34
2023-02-17T01:24:13.320Z,4.26
2023-02-17T01:26:41.239Z,4.23
2023-02-17T01:29:09.274Z,4.33
2023-02-17T01:31:37.420Z,4.39
2023-02-17T01:34:05.683Z,4.45
2023-02-17T01:36:33.593Z,4.44
2023-02-17T01:39:01.719Z,4.43
2023-02-17T01:41:29.909Z,4.38
2023-02-17T01:44:21.731Z,4.52
2023-02-17T01:46:51.836Z,4.45
2023-02-17T01:49:22.522Z,4.42
2023-02-17T01:51:59.965Z,4.45
2023-02-17T01:54:33.475Z,4.52
2023-02-17T01:57:03.122Z,4.43
2023-02-17T01:59:32.077Z,4.39
2023-02-17T02:02:03.578Z,4.30
2023-02-17T02:04:36.067Z,4.43
2023-02-17T02:07:06.157Z,4.47
2023-02-17T02:09:40.993Z,4.41
2023-02-17T02:12:30.064Z,4.43
2023-02-17T02:15:06.048Z,4.48
2023-02-17T02:18:04.642Z,4.43
2023-02-17T02:21:02.801Z,4.50
2023-02-17T02:23:54.187Z,4.43
2023-02-17T02:29:26.273Z,4.45
2023-02-17T02:32:09.110Z,4.47
2023-02-17T02:34:57.687Z,4.47
2023-02-17T02:37:32.908Z,4.51
2023-02-17T02:40:06.758Z,4.47
2023-02-17T02:42:37.125Z,4.46
2023-02-17T02:45:10.670Z,4.66
2023-02-17T02:47:49.858Z,4.65
2023-02-17T02:50:44.927Z,4.66
2023-02-17T02:53:38.591Z,4.69
2023-02-17T02:56:15.116Z,4.59
2023-02-17T02:59:22.009Z,4.68
2023-02-17T03:02:14.008Z,4.67
2023-02-17T03:05:06.316Z,4.61
2023-02-17T03:07:47.496Z,4.72
2023-02-17T03:10:16.234Z,4.75
2023-02-17T03:12:44.314Z,4.80
2023-02-17T03:15:26.729Z,4.76
2023-02-17T03:17:58.081Z,4.78
2023-02-17T03:20:32.939Z,4.84
2023-02-17T03:23:00.683Z,4.85
2023-02-17T03:25:30.192Z,4.89
2023-02-17T03:27:58.239Z,4.87
2023-02-17T03:30:26.695Z,4.85
2023-02-17T03:32:54.543Z,4.94
2023-02-17T03:35:22.469Z,4.90
2023-02-17T03:37:50.359Z,4.78
2023-02-17T03:40:18.461Z,4.92
2023-02-17T03:42:46.366Z,4.93
2023-02-17T03:45:14.428Z,4.74
2023-02-17T03:47:42.123Z,4.81
2023-02-17T03:50:10.400Z,4.91
2023-02-17T03:52:38.173Z,4.95
2023-02-17T03:55:06.377Z,4.88
2023-02-17T03:57:34.862Z,4.87
2023-02-17T04:00:04.513Z,4.95
2023-02-17T04:02:43.695Z,4.86
2023-02-17T04:05:12.033Z,4.89
2023-02-17T04:07:39.840Z,4.88
2023-02-17T04:10:09.505Z,4.91
2023-02-17T04:12:37.418Z,4.99
2023-02-17T04:15:05.696Z,4.95
2023-02-17T04:17:33.476Z,5.01
2023-02-17T04:20:01.378Z,4.90
2023-02-17T04:22:29.354Z,4.94
2023-02-17T04:24:57.281Z,4.96
2023-02-17T04:27:24.992Z,4.85
2023-02-17T04:29:53.052Z,4.89
2023-02-17T04:32:20.738Z,4.88
2023-02-17T04:34:48.682Z,4.88
2023-02-17T04:37:16.389Z,4.90
2023-02-17T04:39:44.391Z,4.80
2023-02-17T04:42:12.065Z,4.87
2023-02-17T04:44:39.978Z,4.90
2023-02-17T04:47:07.678Z,4.90
2023-02-17T04:49:35.636Z,5.03
2023-02-17T04:52:03.448Z,4.92
2023-02-17T04:54:31.394Z,4.93
2023-02-17T04:56:59.044Z,4.86
2023-02-17T04:59:27.102Z,5.05
2023-02-17T05:01:54.742Z,5.04
2023-02-17T05:04:22.848Z,4.96
2023-02-17T05:06:50.594Z,4.88
2023-02-17T05:09:18.659Z,4.82
2023-02-17T05:11:46.370Z,4.82
2023-02-17T05:14:14.696Z,4.88
2023-02-17T05:16:42.480Z,4.87
2023-02-17T05:19:10.452Z,4.81
2023-02-17T05:21:38.296Z,5.00
2023-02-17T05:24:06.514Z,5.01
2023-02-17T05:26:34.390Z,5.01
2023-02-17T05:29:02.412Z,4.88
2023-02-17T05:31:30.403Z,4.85
2023-02-17T05:33:58.567Z,5.00
2023-02-17T05:36:26.291Z,4.90
2023-02-17T05:38:54.396Z,4.81
2023-02-17T05:41:22.372Z,4.78
2023-02-17T05:43:50.343Z,4.74
2023-02-17T05:46:18.125Z,4.73
2023-02-17T05:48:46.312Z,4.74
2023-02-17T05:51:17.190Z,4.94
2023-02-17T05:53:45.432Z,4.82
2023-02-17T05:56:13.145Z,4.71
2023-02-17T05:58:41.079Z,4.72
2023-02-17T06:01:13.216Z,4.63
2023-02-17T06:03:41.464Z,4.60
2023-02-17T06:06:09.273Z,4.61
2023-02-17T06:08:37.491Z,4.61
2023-02-17T06:11:05.340Z,4.61
2023-02-17T06:13:33.653Z,4.57
2023-02-17T06:16:01.519Z,4.82
2023-02-17T06:18:30.082Z,4.62
2023-02-17T06:20:58.693Z,4.70
2023-02-17T06:23:27.656Z,4.65
2023-02-17T06:25:55.665Z,4.75
2023-02-17T06:28:23.670Z,4.82
2023-02-17T06:30:51.499Z,4.66
2023-02-17T06:33:19.610Z,4.61
2023-02-17T06:35:51.945Z,4.75
2023-02-17T06:38:20.499Z,4.72
2023-02-17T06:40:48.286Z,4.60
2023-02-17T06:43:16.313Z,4.58
2023-02-17T06:45:44.212Z,4.67
2023-02-17T06:48:12.446Z,4.62
2023-02-17T06:50:40.312Z,4.62
2023-02-17T06:53:08.558Z,4.81
2023-02-17T06:55:37.341Z,4.84
2023-02-17T06:58:05.430Z,4.81
2023-02-17T07:00:33.202Z,4.73
2023-02-17T07:03:01.357Z,4.99
2023-02-17T07:05:29.248Z,4.67
2023-02-17T07:08:00.293Z,4.79
2023-02-17T07:10:28.055Z,4.86
2023-02-17T07:12:56.035Z,4.93
2023-02-17T07:15:23.725Z,4.99
2023-02-17T07:17:51.685Z,5.15
2023-02-17T07:20:19.538Z,5.28
2023-02-17T07:22:47.537Z,5.18
2023-02-17T07:25:15.309Z,5.31
2023-02-17T07:27:43.356Z,5.26
2023-02-17T07:30:11.675Z,5.34
2023-02-17T07:32:39.725Z,5.34
2023-02-17T07:35:07.583Z,5.44
2023-02-17T07:37:35.758Z,5.66
2023-02-17T07:40:04.231Z,5.64
2023-02-17T07:42:32.274Z,5.90
2023-02-17T07:45:00.024Z,5.93
2023-02-17T07:47:28.055Z,5.87
2023-02-17T07:49:55.969Z,6.08
2023-02-17T07:52:23.942Z,6.09
2023-02-17T07:54:51.707Z,6.14
2023-02-17T07:57:19.688Z,6.14
2023-02-17T07:59:48.208Z,6.18
2023-02-17T08:02:16.470Z,6.17
2023-02-17T08:04:44.756Z,6.36
2023-02-17T08:07:12.782Z,6.18
2023-02-17T08:09:59.234Z,6.22
2023-02-17T08:12:45.844Z,6.33
2023-02-17T08:15:13.812Z,6.40
2023-02-17T08:17:41.929Z,6.40
2023-02-17T08:20:10.114Z,6.53
2023-02-17T08:22:38.532Z,6.61
2023-02-17T08:25:06.552Z,6.61
2023-02-17T08:27:34.815Z,6.64
2023-02-17T08:30:02.752Z,6.75
2023-02-17T08:32:30.802Z,6.74
2023-02-17T08:34:58.946Z,6.95
2023-02-17T08:37:27.215Z,7.00
2023-02-17T08:39:54.970Z,7.12
2023-02-17T08:42:23.417Z,7.13
2023-02-17T08:44:51.367Z,7.13
2023-02-17T08:47:19.478Z,7.14
2023-02-17T08:49:47.204Z,7.06
2023-02-17T08:52:15.697Z,6.98
2023-02-17T08:54:43.398Z,7.04
2023-02-17T08:57:11.531Z,7.18
2023-02-17T08:59:39.278Z,7.20
2023-02-17T09:02:07.480Z,7.21
2023-02-17T09:04:35.245Z,7.43
2023-02-17T09:07:03.401Z,7.43
2023-02-17T09:09:31.752Z,7.60
2023-02-17T09:11:59.902Z,7.59
2023-02-17T09:14:28.054Z,7.76
2023-02-17T09:16:56.694Z,7.98
2023-02-17T09:19:25.032Z,8.06
2023-02-17T09:21:53.917Z,8.04
2023-02-17T09:24:21.566Z,8.10
2023-02-17T09:26:49.586Z,8.15
2023-02-17T09:29:17.306Z,8.19
2023-02-17T09:31:46.165Z,8.32
2023-02-17T09:34:15.283Z,8.17
2023-02-17T09:36:43.871Z,8.08
2023-02-17T09:39:14.008Z,8.10
2023-02-17T09:41:52.099Z,8.12
2023-02-17T09:44:24.738Z,8.14
2023-02-17T09:47:16.271Z,8.09
2023-02-17T09:50:06.734Z,8.16
2023-02-17T09:52:49.194Z,8.17
2023-02-17T09:55:29.974Z,8.33
2023-02-17T09:58:13.299Z,8.31
2023-02-17T10:00:46.598Z,8.37
2023-02-17T10:03:33.655Z,8.54
2023-02-17T10:06:27.666Z,8.54
2023-02-17T10:08:59.112Z,8.46
2023-02-17T10:11:40.417Z,8.51
2023-02-17T10:14:28.999Z,8.37
2023-02-17T10:17:23.497Z,8.37
2023-02-17T10:19:54.894Z,8.33
2023-02-17T10:22:24.460Z,8.30
2023-02-17T10:24:53.428Z,8.19
2023-02-17T10:27:39.558Z,8.26
2023-02-17T10:30:19.730Z,8.23
2023-02-17T10:33:01.744Z,8.12
2023-02-17T10:35:38.841Z,7.92
2023-02-17T10:38:34.825Z,7.71
2023-02-17T10:41:05.991Z,7.66
2023-02-17T10:43:34.536Z,7.38
2023-02-17T10:46:08.245Z,7.31
2023-02-17T10:48:40.925Z,7.30
2023-02-17T10:51:13.429Z,7.39
2023-02-17T10:53:44.397Z,7.47
2023-02-17T10:56:15.278Z,7.49
2023-02-17T10:59:06.591Z,7.48
2023-02-17T11:01:36.472Z,7.52
2023-02-17T11:04:08.510Z,7.72
2023-02-17T11:06:54.938Z,7.76
2023-02-17T11:09:28.902Z,7.62
2023-02-17T11:12:04.582Z,7.77
2023-02-17T11:14:33.803Z,7.51
2023-02-17T11:17:15.007Z,7.61
2023-02-17T11:19:42.761Z,7.63
2023-02-17T11:22:31.019Z,7.74
2023-02-17T11:25:00.778Z,7.63
2023-02-17T11:27:28.858Z,7.67
2023-02-17T11:30:14.905Z,7.76
2023-02-17T11:32:42.946Z,7.79
2023-02-17T11:35:27.319Z,7.62
2023-02-17T11:38:12.739Z,7.52
2023-02-17T11:40:52.022Z,7.52
2023-02-17T11:43:20.587Z,7.54
2023-02-17T11:46:17.936Z,7.54
2023-02-17T11:49:21.766Z,7.64
2023-02-17T11:51:52.276Z,7.67
2023-02-17T11:54:44.581Z,7.64
2023-02-17T11:57:37.042Z,7.74
2023-02-17T12:00:13.688Z,7.72
2023-02-17T12:02:59.440Z,7.53
2023-02-17T12:05:39.956Z,7.59
2023-02-17T12:08:22.410Z,7.52
2023-02-17T12:11:32.361Z,7.58
2023-02-17T12:14:31.630Z,7.57
2023-02-17T12:17:22.251Z,7.65
2023-02-17T12:20:07.226Z,7.79
2023-02-17T12:23:13.457Z,7.73
2023-02-17T12:26:04.659Z,7.53
2023-02-17T12:28:49.594Z,7.64
2023-02-17T12:31:44.962Z,7.60
2023-02-17T12:34:29.908Z,7.57
2023-02-17T12:36:59.276Z,7.49
2023-02-17T12:39:34.559Z,7.59
2023-02-17T12:42:27.208Z,7.56
2023-02-17T12:45:03.299Z,7.56
2023-02-17T12:47:39.053Z,7.43
2023-02-17T12:50:28.780Z,7.51
2023-02-17T12:53:02.050Z,7.57
2023-02-17T12:55:48.807Z,7.70
2023-02-17T12:58:25.159Z,7.53
2023-02-17T13:01:19.047Z,7.54
2023-02-17T13:03:46.935Z,7.40
2023-02-17T13:06:30.338Z,7.63
2023-02-17T13:09:16.828Z,7.53
2023-02-17T13:11:45.686Z,7.43
2023-02-17T13:14:27.401Z,7.61
2023-02-17T13:16:55.873Z,7.47
2023-02-17T13:19:32.727Z,7.52
2023-02-17T13:22:05.713Z,7.50
2023-02-17T13:24:35.002Z,7.54
2023-02-17T13:27:31.291Z,7.51
2023-02-17T13:30:01.951Z,7.39
2023-02-17T13:32:34.376Z,7.51
2023-02-17T13:35:17.793Z,7.45
2023-02-17T13:37:46.843Z,7.54
2023-02-17T13:40:20.187Z,7.33
2023-02-17T13:43:07.944Z,7.29
2023-02-17T13:45:57.538Z,7.44
2023-02-17T13:48:28.634Z,7.53
2023-02-17T13:51:00.284Z,7.45
2023-02-17T13:53:37.921Z,7.28
2023-02-17T13:56:07.600Z,7.24
2023-02-17T13:58:38.762Z,7.35
2023-02-17T14:01:15.297Z,7.24
2023-02-17T14:03:46.695Z,7.21
2023-02-17T14:06:40.673Z,7.22
2023-02-17T14:09:24.693Z,7.20
2023-02-17T14:11:54.162Z,7.16
2023-02-17T14:14:26.238Z,7.15
2023-02-17T14:17:02.427Z,7.10
2023-02-17T14:19:42.154Z,7.10
2023-02-17T14:22:28.944Z,7.19
2023-02-17T14:25:07.016Z,7.17
2023-02-17T14:27:45.324Z,7.14
2023-02-17T14:30:29.899Z,7.17
2023-02-17T14:33:16.344Z,7.26
2023-02-17T14:35:53.641Z,7.18
2023-02-17T14:38:28.556Z,7.10
2023-02-17T14:40:56.952Z,7.09
2023-02-17T14:43:25.189Z,6.98
2023-02-17T14:45:53.603Z,7.04
2023-02-17T14:48:21.386Z,7.07
2023-02-17T14:50:49.584Z,7.15
2023-02-17T14:53:36.528Z,7.06
2023-02-17T14:56:12.618Z,7.09
2023-02-17T14:58:40.605Z,7.09
2023-02-17T15:01:14.939Z,7.04
2023-02-17T15:03:42.768Z,7.12
2023-02-17T15:06:16.689Z,7.11
2023-02-17T15:08:46.004Z,7.04
2023-02-17T15:11:24.485Z,7.08
2023-02-17T15:13:52.287Z,7.07
2023-02-17T15:16:20.275Z,7.05
2023-02-17T15:18:47.981Z,7.11
2023-02-17T15:21:26.934Z,7.10
2023-02-17T15:23:55.630Z,7.07
2023-02-17T15:26:23.780Z,7.09
2023-02-17T15:28:51.889Z,7.15
2023-02-17T15:31:21.602Z,7.15
2023-02-17T15:34:13.230Z,7.10
2023-02-17T15:36:41.187Z,7.14
2023-02-17T15:39:11.610Z,7.14
2023-02-17T15:41:40.939Z,7.37
2023-02-17T15:44:16.361Z,7.26
2023-02-17T15:46:46.205Z,7.18
2023-02-17T15:49:14.678Z,7.23
2023-02-17T15:51:42.917Z,7.22
2023-02-17T15:54:10.689Z,7.16
2023-02-17T15:56:49.612Z,7.30
2023-02-17T15:59:21.137Z,7.27
2023-02-17T16:01:50.773Z,7.20
2023-02-17T16:04:18.950Z,7.18
2023-02-17T16:06:46.976Z,7.18
2023-02-17T16:09:15.073Z,7.19
2023-02-17T16:12:01.655Z,7.23
2023-02-17T16:14:35.352Z,7.25
2023-02-17T16:17:04.361Z,7.27
2023-02-17T16:19:33.455Z,7.32
2023-02-17T16:22:01.835Z,7.26
2023-02-17T16:24:29.764Z,7.17
2023-02-17T16:26:57.794Z,7.07
2023-02-17T16:29:25.468Z,7.08
2023-02-17T16:31:54.376Z,7.18
2023-02-17T16:34:24.188Z,7.19
2023-02-17T16:36:56.649Z,7.23
2023-02-17T16:39:24.464Z,7.23
2023-02-17T16:41:52.541Z,7.13
2023-02-17T16:44:23.316Z,7.26
2023-02-17T16:46:53.634Z,7.16
2023-02-17T16:49:33.809Z,7.17
2023-02-17T16:52:05.008Z,7.13
2023-02-17T16:54:35.475Z,7.18
2023-02-17T16:57:03.873Z,7.17
2023-02-17T16:59:32.944Z,7.18
2023-02-17T17:02:01.578Z,7.23
2023-02-17T17:04:29.398Z,7.21
2023-02-17T17:06:57.419Z,7.35
2023-02-17T17:09:25.450Z,7.30
2023-02-17T17:11:53.722Z,7.32
2023-02-17T17:14:21.957Z,7.28
2023-02-17T17:16:58.591Z,7.27
2023-02-17T17:19:26.371Z,7.30
2023-02-17T17:21:54.371Z,7.27
2023-02-17T17:24:22.439Z,7.29
2023-02-17T17:26:51.593Z,7.26
2023-02-17T17:29:20.124Z,7.27
2023-02-17T17:31:48.738Z,7.35
2023-02-17T17:34:16.590Z,7.36
2023-02-17T17:36:46.884Z,7.36
2023-02-17T17:39:17.932Z,7.40
2023-02-17T17:41:46.446Z,7.29
2023-02-17T17:44:14.349Z,7.24
2023-02-17T17:46:42.799Z,7.31
2023-02-17T17:49:13.642Z,7.27
2023-02-17T17:51:41.854Z,7.27
2023-02-17T17:54:09.782Z,7.20
2023-02-17T17:56:42.970Z,7.21
2023-02-17T17:59:12.049Z,7.32
2023-02-17T18:01:40.103Z,7.27
2023-02-17T18:04:09.418Z,7.30
2023-02-17T18:06:48.745Z,7.31
2023-02-17T18:09:31.408Z,7.42
2023-02-17T18:12:04.533Z,7.46
2023-02-17T18:14:34.868Z,7.35
2023-02-17T18:17:03.195Z,7.33
2023-02-17T18:19:32.144Z,7.35
2023-02-17T18:22:00.187Z,7.48
2023-02-17T18:24:28.260Z,7.41
2023-02-17T18:26:56.336Z,7.48
2023-02-17T18:29:24.266Z,7.45
2023-02-17T18:31:52.723Z,7.54
2023-02-17T18:34:20.619Z,7.61
2023-02-17T18:36:48.634Z,7.58
2023-02-17T18:39:16.397Z,7.57
2023-02-17T18:41:44.410Z,7.46
2023-02-17T18:44:13.726Z,7.64
2023-02-17T18:46:42.551Z,7.52
2023-02-17T18:49:10.704Z,7.52
2023-02-17T18:51:38.724Z,7.57
2023-02-17T18:54:10.860Z,7.60
2023-02-17T18:56:39.092Z,7.65
2023-02-17T18:59:07.553Z,7.72
2023-02-17T19:01:39.564Z,7.67
2023-02-17T19:04:09.702Z,7.68
2023-02-17T19:06:37.760Z,7.71
2023-02-17T19:09:05.999Z,7.73
2023-02-17T19:11:34.194Z,7.67
2023-02-17T19:14:03.284Z,7.70
2023-02-17T19:16:32.606Z,7.75
2023-02-17T19:19:00.884Z,7.78
2023-02-17T19:21:29.024Z,7.78
2023-02-17T19:23:56.977Z,7.85
2023-02-17T19:26:25.049Z,7.90
2023-02-17T19:28:52.845Z,7.98
2023-02-17T19:31:21.315Z,7.91
2023-02-17T19:33:49.268Z,7.93
2023-02-17T19:36:20.393Z,8.04
2023-02-17T19:38:49.636Z,7.93
2023-02-17T19:41:18.703Z,8.00
2023-02-17T19:43:46.649Z,8.03
2023-02-17T19:46:21.009Z,8.08
2023-02-17T19:48:48.834Z,8.16
2023-02-17T19:51:16.912Z,8.19
2023-02-17T19:53:45.128Z,8.23
2023-02-17T19:56:25.819Z,8.29
2023-02-17T19:58:54.295Z,8.29
2023-02-17T20:01:25.218Z,8.40
2023-02-17T20:03:54.667Z,8.43
2023-02-17T20:06:31.297Z,8.30
2023-02-17T20:09:05.081Z,8.43
2023-02-17T20:11:33.515Z,8.46
2023-02-17T20:14:02.385Z,8.44
2023-02-17T20:16:31.171Z,8.50
2023-02-17T20:19:03.266Z,8.60
2023-02-17T20:21:33.629Z,8.62
2023-02-17T20:24:01.788Z,8.63
2023-02-17T20:26:38.271Z,8.71
2023-02-17T20:29:06.325Z,8.76
2023-02-17T20:31:39.275Z,8.85
2023-02-17T20:34:08.662Z,8.89
2023-02-17T20:36:36.607Z,8.84
2023-02-17T20:39:05.221Z,8.97
2023-02-17T20:41:33.145Z,8.92
2023-02-17T20:44:02.928Z,8.98
2023-02-17T20:46:31.873Z,9.12
2023-02-17T20:48:59.701Z,9.17
2023-02-17T20:51:27.678Z,9.18
2023-02-17T20:53:55.332Z,9.16
2023-02-17T20:56:24.935Z,9.28
2023-02-17T20:58:53.029Z,9.24
2023-02-17T21:01:21.129Z,9.21
2023-02-17T21:03:49.387Z,9.26
2023-02-17T21:06:24.509Z,9.26
2023-02-17T21:08:55.094Z,9.26
2023-02-17T21:11:23.595Z,9.26
2023-02-17T21:13:51.510Z,9.29
2023-02-17T21:16:23.687Z,9.41
2023-02-17T21:18:51.885Z,9.33
2023-02-17T21:21:20.548Z,9.26
2023-02-17T21:23:48.429Z,9.17
2023-02-17T21:26:17.373Z,9.15
2023-02-17T21:28:45.843Z,9.14
2023-02-17T21:31:15.067Z,9.18
2023-02-17T21:33:43.335Z,9.15
2023-02-17T21:36:14.327Z,9.09
2023-02-17T21:38:42.220Z,9.17
2023-02-17T21:41:16.049Z,9.41
2023-02-17T21:44:02.565Z,9.36
2023-02-17T21:46:30.609Z,9.40
2023-02-17T21:48:59.708Z,9.41
2023-02-17T21:51:29.106Z,9.43
2023-02-17T21:53:56.794Z,9.35
2023-02-17T21:56:25.770Z,9.41
2023-02-17T21:58:55.452Z,9.41
2023-02-17T22:01:25.181Z,9.34
2023-02-17T22:03:53.710Z,9.37
2023-02-17T22:06:23.260Z,9.45
2023-02-17T22:08:51.532Z,9.33
2023-02-17T22:11:22.375Z,9.25
2023-02-17T22:13:50.173Z,9.12
2023-02-17T22:16:18.172Z,9.02
2023-02-17T22:18:45.790Z,8.92
2023-02-17T22:21:14.637Z,8.99
2023-02-17T22:23:45.060Z,8.99
2023-02-17T22:26:20.166Z,8.95
2023-02-17T22:28:48.514Z,8.86
2023-02-17T22:31:19.359Z,8.73
2023-02-17T22:33:47.269Z,8.74
2023-02-17T22:36:20.018Z,8.61
2023-02-17T22:38:48.100Z,8.47
2023-02-17T22:41:18.896Z,8.40
2023-02-17T22:43:48.295Z,8.29
2023-02-17T22:46:18.674Z,8.24
2023-02-17T22:48:48.365Z,8.18
2023-02-17T22:51:22.115Z,8.16
2023-02-17T22:53:50.798Z,8.10
2023-02-17T22:56:19.379Z,8.04
2023-02-17T22:58:47.449Z,8.09
2023-02-17T23:01:22.767Z,8.14
2023-02-17T23:03:53.045Z,8.04
2023-02-17T23:06:28.560Z,8.10
2023-02-17T23:08:57.140Z,8.07
2023-02-17T23:11:49.796Z,8.05
2023-02-17T23:14:23.028Z,7.88
2023-02-17T23:16:52.191Z,7.83
2023-02-17T23:19:21.267Z,7.85
2023-02-17T23:21:52.414Z,7.71
2023-02-17T23:24:22.326Z,7.80
2023-02-17T23:26:50.982Z,7.74
2023-02-17T23:29:19.437Z,7.82
2023-02-17T23:31:47.593Z,7.71
2023-02-17T23:34:16.527Z,7.74
2023-02-17T23:36:46.303Z,7.61
2023-02-17T23:39:15.155Z,7.66
2023-02-17T23:41:43.718Z,7.61
2023-02-17T23:44:13.267Z,7.64
2023-02-17T23:46:43.212Z,7.56
2023-02-17T23:49:14.726Z,7.53
2023-02-17T23:51:43.291Z,7.55
2023-02-17T23:54:11.069Z,7.52
2023-02-17T23:56:39.348Z,7.57
2023-02-17T23:59:07.148Z,7.65
